createdAt,value
2018-04-07T00:01:08.017Z,89.00
2018-04-07T00:03:34.947Z,90.00
2018-04-07T00:06:01.134Z,89.80
2018-04-07T00:08:27.312Z,90.30
2018-04-07T00:10:53.488Z,89.60
2018-04-07T00:13:19.717Z,89.00
2018-04-07T00:15:45.895Z,89.40
2018-04-07T00:18:12.111Z,89.50
2018-04-07T00:20:38.363Z,90.20
2018-04-07T00:23:04.550Z,90.40
2018-04-07T00:25:30.735Z,90.70
2018-04-07T00:27:56.950Z,90.60
2018-04-07T00:30:23.124Z,90.70
2018-04-07T00:32:50.046Z,90.90
2018-04-07T00:35:16.315Z,90.50
2018-04-07T00:37:43.235Z,91.50
2018-04-07T00:40:09.422Z,91.50
2018-04-07T00:42:36.410Z,91.60
2018-04-07T00:45:02.612Z,91.30
2018-04-07T00:47:28.799Z,91.00
2018-04-07T00:49:55.001Z,91.10
2018-04-07T00:52:21.230Z,91.10
2018-04-07T00:54:47.395Z,91.10
2018-04-07T00:57:13.603Z,91.20
2018-04-07T00:59:39.813Z,91.20
2018-04-07T01:02:06.020Z,91.00
2018-04-07T01:04:32.242Z,90.40
2018-04-07T01:06:59.902Z,90.20
2018-04-07T01:09:26.094Z,90.20
2018-04-07T01:11:52.335Z,90.80
2018-04-07T01:14:18.519Z,90.80
2018-04-07T01:16:45.431Z,90.70
2018-04-07T01:19:11.654Z,90.70
2018-04-07T01:21:37.858Z,90.50
2018-04-07T01:24:04.050Z,90.50
2018-04-07T01:26:30.272Z,90.70
2018-04-07T01:28:56.455Z,90.60
2018-04-07T01:31:22.656Z,90.70
2018-04-07T01:33:49.823Z,91.30
2018-04-07T01:36:16.051Z,91.20
2018-04-07T01:38:42.988Z,91.30
2018-04-07T01:41:09.244Z,91.30
2018-04-07T01:43:36.740Z,91.60
2018-04-07T01:46:02.952Z,91.50
2018-04-07T01:48:29.228Z,91.60
2018-04-07T01:50:55.400Z,91.70
2018-04-07T01:53:22.355Z,92.20
2018-04-07T01:55:49.300Z,92.00
2018-04-07T01:58:16.206Z,92.00
2018-04-07T02:00:42.374Z,92.00
2018-04-07T02:03:09.535Z,91.90
2018-04-07T02:05:36.459Z,92.00
2018-04-07T02:08:02.716Z,92.00
2018-04-07T02:10:29.651Z,91.70
2018-04-07T02:12:55.822Z,91.70
2018-04-07T02:15:21.987Z,91.70
2018-04-07T02:17:48.238Z,91.80
2018-04-07T02:20:14.471Z,91.80
2018-04-07T02:22:40.654Z,91.70
2018-04-07T02:25:06.865Z,91.70
2018-04-07T02:27:33.782Z,91.50
2018-04-07T02:30:00.003Z,91.50
2018-04-07T02:32:26.252Z,91.70
2018-04-07T02:34:52.449Z,91.60
2018-04-07T02:37:18.625Z,91.50
2018-04-07T02:39:44.838Z,91.60
2018-04-07T02:42:11.016Z,91.60
2018-04-07T02:44:39.486Z,92.10
2018-04-07T02:47:05.701Z,92.10
2018-04-07T02:49:31.889Z,92.00
2018-04-07T02:51:58.078Z,91.90
2018-04-07T02:54:24.301Z,91.80
2018-04-07T02:56:50.493Z,92.00
2018-04-07T02:59:16.680Z,92.20
2018-04-07T03:01:42.884Z,91.80
2018-04-07T03:04:09.064Z,91.80
2018-04-07T03:06:36.012Z,91.70
2018-04-07T03:09:02.974Z,91.70
2018-04-07T03:11:29.175Z,91.70
2018-04-07T03:13:55.357Z,91.70
2018-04-07T03:16:21.565Z,91.70
2018-04-07T03:18:48.504Z,91.80
2018-04-07T03:21:15.437Z,91.70
2018-04-07T03:23:41.640Z,91.60
2018-04-07T03:26:07.879Z,91.40
2018-04-07T03:28:34.075Z,91.30
2018-04-07T03:31:00.292Z,91.10
2018-04-07T03:33:27.225Z,91.10
2018-04-07T03:35:53.404Z,91.10
2018-04-07T03:38:19.608Z,91.20
2018-04-07T03:40:46.585Z,91.40
2018-04-07T03:43:12.758Z,91.30
2018-04-07T03:45:39.611Z,91.30
2018-04-07T03:48:06.553Z,91.40
2018-04-07T03:50:32.757Z,91.50
2018-04-07T03:52:58.959Z,91.70
2018-04-07T03:55:25.877Z,91.40
2018-04-07T03:57:52.068Z,91.40
2018-04-07T04:00:18.282Z,91.60
2018-04-07T04:02:44.520Z,91.40
2018-04-07T04:05:10.795Z,91.30
2018-04-07T04:07:37.047Z,91.20
2018-04-07T04:10:03.262Z,91.50
2018-04-07T04:12:29.440Z,91.60
2018-04-07T04:14:56.367Z,91.40
2018-04-07T04:17:22.582Z,91.40
2018-04-07T04:19:48.759Z,91.70
2018-04-07T04:22:15.700Z,91.50
2018-04-07T04:24:42.673Z,91.50
2018-04-07T04:27:08.865Z,91.40
2018-04-07T04:29:35.105Z,91.30
2018-04-07T04:32:01.339Z,91.00
2018-04-07T04:34:28.299Z,91.30
2018-04-07T04:36:55.266Z,91.50
2018-04-07T04:39:22.208Z,91.90
2018-04-07T04:41:49.246Z,92.40
2018-04-07T04:44:15.456Z,92.30
2018-04-07T04:46:42.993Z,92.30
2018-04-07T04:49:09.166Z,92.30
2018-04-07T04:51:35.390Z,92.20
2018-04-07T04:54:01.571Z,92.00
2018-04-07T04:56:27.763Z,91.50
2018-04-07T04:58:54.000Z,91.20
2018-04-07T05:01:20.171Z,91.40
2018-04-07T05:03:47.083Z,91.10
2018-04-07T05:06:13.360Z,91.10
2018-04-07T05:08:39.554Z,90.90
2018-04-07T05:11:05.764Z,90.70
2018-04-07T05:13:31.962Z,90.50
2018-04-07T05:15:58.182Z,90.60
2018-04-07T05:18:24.359Z,90.40
2018-04-07T05:20:50.555Z,90.10
2018-04-07T05:23:16.744Z,89.10
2018-04-07T05:25:42.927Z,88.60
2018-04-07T05:28:09.114Z,87.10
2018-04-07T05:30:35.300Z,86.40
2018-04-07T05:33:01.557Z,86.00
2018-04-07T05:35:27.856Z,85.50
2018-04-07T05:37:54.078Z,84.90
2018-04-07T05:40:20.365Z,85.00
2018-04-07T05:42:46.577Z,85.10
2018-04-07T05:45:12.817Z,85.20
2018-04-07T05:47:39.810Z,85.10
2018-04-07T05:50:06.055Z,84.30
2018-04-07T05:52:32.983Z,83.60
2018-04-07T05:54:59.170Z,83.50
2018-04-07T05:57:25.418Z,83.40
2018-04-07T05:59:51.595Z,83.40
2018-04-07T06:02:17.835Z,83.40
2018-04-07T06:04:44.837Z,82.80
2018-04-07T06:07:11.036Z,82.70
2018-04-07T06:09:37.232Z,82.90
2018-04-07T06:12:03.548Z,82.30
2018-04-07T06:14:29.728Z,81.50
2018-04-07T06:16:56.654Z,82.10
2018-04-07T06:19:22.952Z,82.10
2018-04-07T06:21:50.152Z,81.50
2018-04-07T06:24:16.405Z,81.30
2018-04-07T06:26:43.351Z,80.50
2018-04-07T06:29:10.275Z,80.00
2018-04-07T06:31:36.580Z,79.90
2018-04-07T06:34:02.807Z,79.80
2018-04-07T06:36:28.989Z,80.00
2018-04-07T06:38:55.914Z,78.40
2018-04-07T06:41:22.128Z,77.80
2018-04-07T06:43:48.351Z,78.00
2018-04-07T06:46:14.529Z,78.20
2018-04-07T06:48:41.245Z,76.60
2018-04-07T06:51:07.421Z,78.10
2018-04-07T06:53:34.347Z,76.70
2018-04-07T06:56:00.584Z,76.60
2018-04-07T06:58:26.821Z,75.10
2018-04-07T07:00:52.996Z,74.80
2018-04-07T07:03:19.195Z,74.50
2018-04-07T07:05:45.367Z,75.80
2018-04-07T07:08:11.549Z,74.50
2018-04-07T07:10:37.807Z,73.60
2018-04-07T07:13:04.060Z,71.80
2018-04-07T07:15:30.228Z,72.60
2018-04-07T07:17:56.436Z,72.40
2018-04-07T07:20:22.647Z,72.80
2018-04-07T07:22:49.585Z,72.30
2018-04-07T07:25:16.677Z,70.40
2018-04-07T07:27:42.855Z,70.20
2018-04-07T07:30:09.036Z,70.20
2018-04-07T07:32:35.272Z,71.60
2018-04-07T07:35:01.464Z,70.10
2018-04-07T07:37:27.654Z,69.70
2018-04-07T07:39:53.853Z,66.90
2018-04-07T07:42:20.827Z,66.30
2018-04-07T07:44:47.012Z,66.20
2018-04-07T07:47:13.227Z,66.10
2018-04-07T07:49:40.118Z,62.10
2018-04-07T07:52:06.324Z,62.30
2018-04-07T07:54:32.546Z,64.50
2018-04-07T07:56:58.735Z,59.80
2018-04-07T07:59:24.965Z,60.80
2018-04-07T08:01:51.188Z,61.90
2018-04-07T08:04:17.358Z,59.90
2018-04-07T08:06:43.530Z,59.60
2018-04-07T08:09:10.487Z,58.20
2018-04-07T08:11:37.419Z,58.10
2018-04-07T08:14:03.628Z,58.10
2018-04-07T08:16:29.859Z,57.10
2018-04-07T08:18:56.031Z,55.60
2018-04-07T08:21:22.244Z,56.80
2018-04-07T08:23:48.484Z,56.30
2018-04-07T08:26:14.664Z,55.30
2018-04-07T08:28:40.847Z,53.20
2018-04-07T08:31:07.059Z,54.90
2018-04-07T08:33:33.245Z,53.10
2018-04-07T08:36:00.199Z,52.40
2018-04-07T08:38:27.183Z,52.30
2018-04-07T08:40:53.375Z,52.40
2018-04-07T08:43:20.311Z,53.90
2018-04-07T08:45:47.272Z,53.50
2018-04-07T08:48:14.174Z,53.40
2018-04-07T08:50:40.593Z,53.40
2018-04-07T08:53:06.794Z,51.60
2018-04-07T08:55:33.744Z,51.40
2018-04-07T08:58:00.692Z,50.40
2018-04-07T09:00:27.649Z,51.10
2018-04-07T09:02:53.870Z,51.10
2018-04-07T09:05:20.776Z,50.00
2018-04-07T09:07:46.982Z,50.00
2018-04-07T09:10:13.176Z,50.20
2018-04-07T09:12:39.378Z,49.40
2018-04-07T09:15:05.593Z,49.40
2018-04-07T09:17:31.775Z,48.70
2018-04-07T09:19:57.975Z,48.30
2018-04-07T09:22:25.095Z,46.20
2018-04-07T09:24:51.264Z,46.20
2018-04-07T09:27:17.444Z,48.20
2018-04-07T09:29:44.527Z,45.30
2018-04-07T09:32:10.780Z,45.30
2018-04-07T09:34:36.959Z,47.20
2018-04-07T09:37:03.957Z,46.30
2018-04-07T09:39:30.127Z,46.20
2018-04-07T09:41:56.309Z,45.60
2018-04-07T09:44:22.731Z,44.00
2018-04-07T09:46:48.895Z,44.70
2018-04-07T09:49:15.075Z,45.40
2018-04-07T09:51:42.484Z,42.90
2018-04-07T09:54:08.667Z,42.70
2018-04-07T09:56:35.623Z,42.60
2018-04-07T09:59:02.771Z,40.50
2018-04-07T10:01:29.743Z,41.00
2018-04-07T10:03:55.939Z,40.90
2018-04-07T10:06:22.142Z,41.70
2018-04-07T10:08:48.342Z,40.90
2018-04-07T10:11:14.542Z,43.00
2018-04-07T10:13:40.783Z,43.00
2018-04-07T10:16:06.956Z,44.10
2018-04-07T10:18:33.126Z,42.20
2018-04-07T10:20:59.332Z,40.30
2018-04-07T10:23:25.521Z,40.50
2018-04-07T10:25:52.493Z,39.70
2018-04-07T10:28:18.731Z,39.70
2018-04-07T10:30:44.935Z,39.30
2018-04-07T10:33:11.111Z,40.90
2018-04-07T10:35:37.324Z,41.90
2018-04-07T10:38:03.528Z,41.80
2018-04-07T10:40:29.718Z,41.10
2018-04-07T10:42:55.925Z,40.70
2018-04-07T10:45:22.149Z,40.90
2018-04-07T10:47:48.375Z,39.30
2018-04-07T10:50:15.323Z,38.70
2018-04-07T10:52:42.984Z,39.80
2018-04-07T10:55:09.101Z,39.70
2018-04-07T10:57:35.307Z,38.70
2018-04-07T11:00:01.516Z,39.70
2018-04-07T11:02:27.699Z,38.30
2018-04-07T11:04:54.880Z,39.30
2018-04-07T11:07:21.828Z,37.90
2018-04-07T11:09:48.774Z,38.30
2018-04-07T11:12:15.703Z,40.70
2018-04-07T11:14:41.959Z,40.60
2018-04-07T11:17:08.918Z,38.50
2018-04-07T11:19:35.933Z,37.50
2018-04-07T11:22:02.152Z,37.40
2018-04-07T11:24:28.323Z,38.00
2018-04-07T11:26:55.304Z,38.80
2018-04-07T11:29:21.472Z,38.90
2018-04-07T11:31:47.652Z,37.30
2018-04-07T11:34:13.895Z,38.20
2018-04-07T11:36:40.138Z,38.30
2018-04-07T11:39:08.204Z,37.50
2018-04-07T11:41:34.432Z,38.10
2018-04-07T11:44:00.602Z,38.40
2018-04-07T11:46:26.804Z,38.50
2018-04-07T11:48:53.044Z,38.20
2018-04-07T11:51:19.243Z,37.90
2018-04-07T11:53:46.248Z,37.40
2018-04-07T11:56:12.532Z,37.60
2018-04-07T11:58:39.447Z,38.10
2018-04-07T12:01:05.622Z,37.90
2018-04-07T12:03:32.580Z,36.20
2018-04-07T12:05:58.750Z,36.20
2018-04-07T12:08:24.940Z,36.80
2018-04-07T12:10:51.871Z,37.70
2018-04-07T12:13:18.094Z,37.50
2018-04-07T12:15:44.268Z,37.60
2018-04-07T12:18:10.465Z,36.70
2018-04-07T12:20:36.643Z,35.30
2018-04-07T12:23:02.854Z,36.70
2018-04-07T12:25:29.791Z,36.20
2018-04-07T12:27:55.954Z,36.20
2018-04-07T12:30:22.136Z,36.00
2018-04-07T12:32:48.339Z,36.30
2018-04-07T12:35:14.528Z,35.50
2018-04-07T12:37:41.493Z,35.50
2018-04-07T12:40:07.751Z,35.40
2018-04-07T12:42:33.933Z,34.20
2018-04-07T12:45:00.889Z,36.40
2018-04-07T12:47:27.826Z,35.90
2018-04-07T12:49:54.016Z,35.10
2018-04-07T12:52:20.256Z,36.40
2018-04-07T12:54:47.149Z,36.90
2018-04-07T12:57:13.318Z,35.40
2018-04-07T12:59:39.508Z,37.00
2018-04-07T13:02:05.764Z,35.50
2018-04-07T13:04:32.699Z,35.70
2018-04-07T13:06:58.872Z,35.60
2018-04-07T13:09:25.108Z,34.70
2018-04-07T13:11:51.307Z,34.00
2018-04-07T13:14:18.211Z,35.20
2018-04-07T13:16:44.441Z,35.10
2018-04-07T13:19:10.616Z,34.40
2018-04-07T13:21:37.579Z,35.60
2018-04-07T13:24:04.519Z,35.10
2018-04-07T13:26:31.427Z,35.80
2018-04-07T13:28:57.614Z,35.80
2018-04-07T13:31:24.554Z,32.90
2018-04-07T13:33:51.483Z,32.40
2018-04-07T13:36:17.658Z,32.40
2018-04-07T13:38:43.875Z,33.60
2018-04-07T13:41:10.812Z,33.90
2018-04-07T13:43:36.998Z,33.90
2018-04-07T13:46:03.243Z,34.70
2018-04-07T13:48:29.496Z,34.80
2018-04-07T13:50:55.675Z,31.50
2018-04-07T13:53:21.878Z,32.80
2018-04-07T13:55:48.971Z,31.00
2018-04-07T13:58:15.163Z,31.90
2018-04-07T14:00:41.370Z,32.90
2018-04-07T14:03:07.547Z,32.40
2018-04-07T14:05:34.491Z,31.60
2018-04-07T14:08:01.440Z,31.10
2018-04-07T14:10:28.375Z,32.80
2018-04-07T14:12:54.545Z,32.60
2018-04-07T14:15:20.756Z,33.10
2018-04-07T14:17:47.672Z,32.90
2018-04-07T14:20:13.866Z,32.70
2018-04-07T14:22:40.089Z,32.90
2018-04-07T14:25:06.337Z,32.20
2018-04-07T14:27:32.519Z,31.40
2018-04-07T14:29:58.770Z,31.30
2018-04-07T14:32:32.579Z,32.80
2018-04-07T14:34:59.551Z,33.10
2018-04-07T14:37:25.744Z,33.00
2018-04-07T14:39:51.936Z,32.10
2018-04-07T14:42:18.127Z,31.90
2018-04-07T14:44:45.035Z,34.50
2018-04-07T14:47:11.211Z,34.40
2018-04-07T14:49:38.359Z,33.80
2018-04-07T14:52:05.286Z,33.70
2018-04-07T14:54:32.210Z,34.80
2018-04-07T14:56:59.002Z,34.60
2018-04-07T14:59:25.202Z,33.90
2018-04-07T15:01:51.378Z,35.30
2018-04-07T15:04:18.336Z,36.10
2018-04-07T15:06:44.511Z,36.00
2018-04-07T15:09:10.682Z,36.20
2018-04-07T15:11:37.655Z,36.80
2018-04-07T15:14:03.880Z,36.50
2018-04-07T15:16:30.060Z,36.50
2018-04-07T15:18:56.287Z,37.10
2018-04-07T15:21:22.489Z,37.60
2018-04-07T15:23:48.673Z,37.40
2018-04-07T15:26:14.907Z,37.20
2018-04-07T15:28:41.119Z,39.00
2018-04-07T15:31:07.286Z,39.00
2018-04-07T15:33:33.524Z,40.00
2018-04-07T15:36:00.434Z,40.30
2018-04-07T15:38:26.671Z,39.80
2018-04-07T15:40:53.003Z,38.90
2018-04-07T15:43:19.202Z,38.90
2018-04-07T15:45:45.408Z,38.80
2018-04-07T15:48:11.607Z,37.80
2018-04-07T15:50:37.790Z,38.70
2018-04-07T15:53:04.711Z,39.50
2018-04-07T15:55:30.944Z,40.30
2018-04-07T15:57:57.348Z,39.00
2018-04-07T16:00:23.531Z,39.70
2018-04-07T16:02:49.741Z,39.30
2018-04-07T16:05:15.947Z,40.00
2018-04-07T16:07:42.139Z,39.80
2018-04-07T16:10:09.108Z,40.80
2018-04-07T16:12:35.298Z,40.70
2018-04-07T16:15:01.525Z,41.30
2018-04-07T16:17:27.757Z,42.00
2018-04-07T16:19:53.941Z,42.20
2018-04-07T16:22:20.120Z,41.70
2018-04-07T16:24:46.351Z,43.00
2018-04-07T16:27:12.552Z,42.70
2018-04-07T16:29:38.727Z,42.90
2018-04-07T16:32:04.941Z,42.40
2018-04-07T16:34:31.123Z,42.60
2018-04-07T16:36:58.068Z,42.90
2018-04-07T16:39:24.318Z,42.90
2018-04-07T16:41:50.511Z,43.60
2018-04-07T16:44:16.708Z,42.70
2018-04-07T16:46:42.922Z,42.80
2018-04-07T16:49:09.083Z,43.80
2018-04-07T16:51:35.279Z,44.00
2018-04-07T16:54:02.240Z,46.40
2018-04-07T16:56:28.422Z,46.30
2018-04-07T16:58:55.355Z,46.90
2018-04-07T17:01:21.599Z,47.90
2018-04-07T17:03:47.820Z,48.20
2018-04-07T17:06:14.040Z,47.80
2018-04-07T17:08:40.263Z,47.70
2018-04-07T17:11:06.448Z,48.60
2018-04-07T17:13:32.663Z,48.30
2018-04-07T17:15:58.899Z,48.00
2018-04-07T17:18:25.067Z,48.50
2018-04-07T17:20:52.006Z,48.60
2018-04-07T17:23:18.229Z,48.60
2018-04-07T17:25:44.432Z,49.40
2018-04-07T17:28:10.599Z,49.00
2018-04-07T17:30:36.840Z,49.80
2018-04-07T17:33:03.790Z,50.50
2018-04-07T17:35:29.999Z,50.10
2018-04-07T17:37:56.189Z,51.50
2018-04-07T17:40:22.373Z,52.20
2018-04-07T17:42:48.547Z,53.20
2018-04-07T17:45:14.768Z,54.10
2018-04-07T17:47:41.694Z,55.10
2018-04-07T17:50:07.952Z,55.00
2018-04-07T17:52:34.925Z,55.20
2018-04-07T17:55:01.114Z,55.20
2018-04-07T17:57:28.075Z,56.20
2018-04-07T17:59:55.597Z,55.70
2018-04-07T18:02:21.770Z,55.60
2018-04-07T18:04:48.719Z,54.90
2018-04-07T18:07:15.684Z,54.20
2018-04-07T18:09:42.620Z,53.80
2018-04-07T18:12:09.559Z,53.30
2018-04-07T18:14:42.614Z,53.20
2018-04-07T18:17:08.783Z,53.60
2018-04-07T18:19:34.961Z,53.60
2018-04-07T18:22:01.163Z,53.20
2018-04-07T18:24:28.080Z,55.50
2018-04-07T18:26:54.273Z,55.40
2018-04-07T18:29:20.467Z,55.10
2018-04-07T18:31:46.639Z,55.30
2018-04-07T18:34:12.810Z,56.10
2018-04-07T18:36:39.018Z,56.30
2018-04-07T18:39:05.199Z,57.50
2018-04-07T18:41:31.486Z,59.70
2018-04-07T18:43:57.666Z,59.60
2018-04-07T18:46:23.851Z,60.20
2018-04-07T18:48:50.015Z,61.00
2018-04-07T18:51:16.259Z,62.90
2018-04-07T18:53:42.437Z,62.20
2018-04-07T18:56:08.624Z,62.00
2018-04-07T18:58:34.846Z,62.30
2018-04-07T19:01:01.744Z,62.40
2018-04-07T19:03:27.934Z,62.00
2018-04-07T19:05:54.135Z,62.90
2018-04-07T19:08:20.326Z,63.70
2018-04-07T19:10:47.319Z,66.60
2018-04-07T19:13:13.539Z,66.40
2018-04-07T19:15:39.757Z,66.20
2018-04-07T19:18:06.662Z,65.60
2018-04-07T19:20:32.931Z,65.60
2018-04-07T19:22:59.887Z,67.20
2018-04-07T19:25:26.082Z,67.10
2018-04-07T19:27:52.324Z,67.60
2018-04-07T19:30:18.540Z,67.50
2018-04-07T19:32:44.698Z,67.20
2018-04-07T19:35:11.666Z,68.80
2018-04-07T19:37:37.869Z,68.20
2018-04-07T19:40:04.784Z,69.20
2018-04-07T19:42:31.023Z,69.30
2018-04-07T19:44:57.213Z,69.60
2018-04-07T19:47:23.396Z,71.20
2018-04-07T19:49:49.595Z,71.80
2018-04-07T19:52:15.886Z,72.50
2018-04-07T19:54:42.961Z,75.00
2018-04-07T19:57:09.959Z,73.80
2018-04-07T19:59:36.148Z,73.70
2018-04-07T20:02:03.932Z,74.30
2018-04-07T20:04:30.210Z,74.20
2018-04-07T20:06:56.391Z,73.80
2018-04-07T20:09:22.575Z,74.00
2018-04-07T20:11:48.818Z,74.20
2018-04-07T20:14:15.044Z,74.20
2018-04-07T20:16:41.279Z,74.50
2018-04-07T20:19:07.534Z,74.60
2018-04-07T20:21:34.490Z,74.20
2018-04-07T20:24:01.411Z,74.90
2018-04-07T20:26:27.661Z,74.80
2018-04-07T20:28:53.850Z,75.50
2018-04-07T20:31:20.042Z,75.50
2018-04-07T20:33:47.224Z,75.40
2018-04-07T20:36:13.403Z,75.20
2018-04-07T20:38:39.588Z,75.50
2018-04-07T20:41:05.821Z,76.10
2018-04-07T20:43:32.067Z,77.90
2018-04-07T20:45:58.239Z,78.20
2018-04-07T20:48:24.451Z,77.10
2018-04-07T20:50:50.626Z,76.50
2018-04-07T20:53:17.549Z,77.90
2018-04-07T20:55:43.763Z,77.90
2018-04-07T20:58:09.947Z,78.70
2018-04-07T21:00:36.872Z,79.80
2018-04-07T21:03:03.531Z,79.70
2018-04-07T21:05:30.471Z,78.80
2018-04-07T21:07:57.414Z,78.30
2018-04-07T21:10:23.620Z,78.00
2018-04-07T21:12:49.812Z,78.20
2018-04-07T21:15:15.988Z,79.00
2018-04-07T21:17:42.188Z,79.70
2018-04-07T21:20:08.407Z,80.50
2018-04-07T21:22:34.595Z,81.10
2018-04-07T21:25:00.818Z,81.00
2018-04-07T21:27:27.027Z,81.20
2018-04-07T21:29:53.197Z,80.90
2018-04-07T21:32:19.443Z,80.70
2018-04-07T21:34:45.640Z,81.10
2018-04-07T21:37:12.559Z,80.80
2018-04-07T21:39:38.756Z,81.40
2018-04-07T21:42:04.924Z,80.70
2018-04-07T21:44:31.850Z,80.80
2018-04-07T21:46:58.798Z,80.20
2018-04-07T21:49:24.979Z,80.10
2018-04-07T21:51:51.150Z,80.10
2018-04-07T21:54:17.396Z,80.20
2018-04-07T21:56:43.568Z,80.20
2018-04-07T21:59:09.730Z,80.10
2018-04-07T22:01:35.966Z,79.90
2018-04-07T22:04:02.500Z,80.30
2018-04-07T22:06:28.709Z,80.40
2018-04-07T22:08:54.915Z,80.40
2018-04-07T22:11:21.843Z,80.50
2018-04-07T22:13:48.024Z,80.40
2018-04-07T22:16:14.236Z,81.60
2018-04-07T22:18:41.187Z,81.50
2018-04-07T22:21:08.107Z,80.70
2018-04-07T22:23:34.338Z,80.50
2018-04-07T22:26:00.574Z,80.60
2018-04-07T22:28:26.757Z,80.70
2018-04-07T22:30:52.994Z,81.40
2018-04-07T22:33:26.168Z,81.10
2018-04-07T22:35:52.367Z,81.10
2018-04-07T22:38:18.614Z,81.00
2018-04-07T22:40:45.533Z,82.00
2018-04-07T22:43:11.719Z,81.90
2018-04-07T22:45:37.933Z,82.60
2018-04-07T22:48:04.148Z,82.70
2018-04-07T22:50:30.339Z,82.10
2018-04-07T22:52:56.571Z,81.90
2018-04-07T22:55:22.742Z,81.90
2018-04-07T22:57:48.946Z,82.10
2018-04-07T23:00:15.986Z,81.50
2018-04-07T23:02:42.898Z,81.70
2018-04-07T23:05:10.020Z,81.70
2018-04-07T23:07:36.227Z,81.60
2018-04-07T23:10:02.427Z,81.50
2018-04-07T23:12:29.363Z,83.50
2018-04-07T23:14:55.593Z,83.50
2018-04-07T23:17:22.514Z,83.40
2018-04-07T23:19:48.672Z,83.50
2018-04-07T23:22:14.872Z,83.90
2018-04-07T23:24:41.059Z,85.80
2018-04-07T23:27:07.980Z,85.30
2018-04-07T23:29:34.191Z,84.60
2018-04-07T23:32:00.384Z,84.10
2018-04-07T23:34:26.568Z,84.30
2018-04-07T23:36:52.789Z,84.70
2018-04-07T23:39:18.954Z,84.90
2018-04-07T23:41:45.888Z,83.80
2018-04-07T23:44:12.095Z,83.80
2018-04-07T23:46:38.266Z,83.90
2018-04-07T23:49:05.211Z,86.00
2018-04-07T23:51:31.410Z,85.10
2018-04-07T23:53:57.578Z,85.60
2018-04-07T23:56:23.760Z,85.10
2018-04-07T23:58:49.942Z,85.40
